Time;durP1;ratioP1;P1;durP2;ratioP2;P2;SDS_P1;SDS_P2;PMS_P1;PMS_P2;Temp;Humidity;BMP_temperature;BMP_pressure;BME280_temperature;BME280_humidity;BME280_pressure;Samples;Min_cycle;Max_cycle;Signal;HPM_P1;HPM_P2
2023/11/23 00:01:28;;;;;;;;;47.25;39.50;;;;;;;;4923909;28;45201;-78
2023/11/23 00:03:53;;;;;;;;;44.25;39.00;;;;;;;;4924060;28;45137;-77
2023/11/23 00:06:18;;;;;;;;;47.25;40.75;;;;;;;;4924246;28;45535;-77
2023/11/23 00:08:44;;;;;;;;;40.80;36.80;;;;;;;;4924280;28;45147;-77
2023/11/23 00:11:09;;;;;;;;;31.00;28.33;;;;;;;;4923718;28;46138;-78
2023/11/23 00:13:35;;;;;;;;;37.33;34.33;;;;;;;;4923808;28;45356;-77
2023/11/23 00:16:00;;;;;;;;;40.67;35.67;;;;;;;;4924188;28;45510;-77
2023/11/23 00:18:25;;;;;;;;;47.75;39.00;;;;;;;;4906517;28;46510;-77
2023/11/23 00:20:50;;;;;;;;;48.50;38.50;;;;;;;;4915651;28;45407;-77
2023/11/23 00:23:15;;;;;;;;;45.50;37.75;;;;;;;;4904784;29;45331;-78
2023/11/23 00:25:40;;;;;;;;;45.25;36.50;;;;;;;;4903249;29;45404;-78
2023/11/23 00:28:06;;;;;;;;;42.00;37.67;;;;;;;;4903592;29;45296;-77
2023/11/23 00:30:31;;;;;;;;;46.67;36.00;;;;;;;;4887485;29;48228;-77
2023/11/23 00:32:56;;;;;;;;;48.25;39.50;;;;;;;;4904648;29;45252;-78
2023/11/23 00:35:21;;;;;;;;;46.75;39.50;;;;;;;;4904647;29;45328;-78
2023/11/23 00:37:47;;;;;;;;;47.25;39.00;;;;;;;;4904560;29;45316;-77
2023/11/23 00:40:14;;;;;;;;;39.00;35.25;;;;;;;;4904592;29;45387;-77
2023/11/23 00:42:40;;;;;;;;;46.00;38.25;;;;;;;;4904611;29;45331;-77
2023/11/23 00:45:05;;;;;;;;;48.50;40.50;;;;;;;;4904376;29;45272;-78
2023/11/23 00:47:30;;;;;;;;;46.50;38.00;;;;;;;;4904519;29;45468;-77
2023/11/23 00:49:56;;;;;;;;;44.33;38.33;;;;;;;;4887172;29;46948;-78
2023/11/23 00:52:21;;;;;;;;;44.00;37.75;;;;;;;;4887260;29;45456;-77
2023/11/23 00:54:47;;;;;;;;;32.50;31.00;;;;;;;;4904606;29;45316;-77
2023/11/23 00:57:12;;;;;;;;;42.67;37.00;;;;;;;;4910397;28;45509;-78
2023/11/23 00:59:37;;;;;;;;;34.00;32.00;;;;;;;;4923021;28;46239;-78
2023/11/23 01:02:03;;;;;;;;;37.67;33.00;;;;;;;;4923198;28;45275;-77
2023/11/23 01:04:28;;;;;;;;;41.00;36.50;;;;;;;;4906006;28;45273;-77
2023/11/23 01:06:54;;;;;;;;;40.33;34.00;;;;;;;;4923196;28;45220;-78
2023/11/23 01:09:20;;;;;;;;;46.00;38.00;;;;;;;;4905800;28;48235;-78
2023/11/23 01:11:45;;;;;;;;;42.33;37.00;;;;;;;;4922932;28;45348;-78
2023/11/23 01:14:10;;;;;;;;;44.33;38.00;;;;;;;;4923059;28;45328;-77
2023/11/23 01:16:35;;;;;;;;;35.67;34.00;;;;;;;;4923043;28;45518;-78
2023/11/23 01:19:01;;;;;;;;;44.33;37.00;;;;;;;;4922923;28;45850;-77
2023/11/23 01:21:26;;;;;;;;;40.67;37.00;;;;;;;;4922902;28;45375;-77
2023/11/23 01:23:51;;;;;;;;;42.33;36.00;;;;;;;;4923087;28;45332;-78
2023/11/23 01:26:16;;;;;;;;;44.50;38.00;;;;;;;;4905500;28;46033;-77
2023/11/23 01:28:42;;;;;;;;;37.67;34.33;;;;;;;;4922682;28;45339;-78
2023/11/23 01:31:07;;;;;;;;;47.50;38.25;;;;;;;;4905852;28;45336;-78
2023/11/23 01:33:32;;;;;;;;;46.00;38.00;;;;;;;;4905607;28;45315;-77
2023/11/23 01:35:57;;;;;;;;;44.50;39.00;;;;;;;;4922466;28;45287;-77
2023/11/23 01:38:22;;;;;;;;;45.67;37.67;;;;;;;;4922542;28;45481;-78
2023/11/23 01:40:48;;;;;;;;;44.50;37.75;;;;;;;;4905311;28;46031;-77
2023/11/23 01:43:13;;;;;;;;;48.25;39.75;;;;;;;;4905324;28;45356;-77
2023/11/23 01:45:38;;;;;;;;;50.75;41.25;;;;;;;;4905479;28;46289;-78
2023/11/23 01:48:04;;;;;;;;;44.00;37.75;;;;;;;;4905132;28;46644;-78
2023/11/23 01:50:30;;;;;;;;;48.00;38.75;;;;;;;;4905110;28;45556;-78
2023/11/23 01:52:56;;;;;;;;;47.50;40.25;;;;;;;;4922659;28;45308;-78
2023/11/23 01:55:21;;;;;;;;;44.00;38.00;;;;;;;;4905315;28;47732;-78
2023/11/23 01:57:48;;;;;;;;;45.25;40.00;;;;;;;;4911393;28;45313;-78
2023/11/23 02:00:13;;;;;;;;;41.00;34.50;;;;;;;;4885838;29;45528;-78
2023/11/23 02:02:42;;;;;;;;;44.67;37.67;;;;;;;;4903282;29;45313;-77
2023/11/23 02:05:07;;;;;;;;;41.75;35.75;;;;;;;;4903050;29;45738;-77
2023/11/23 02:07:35;;;;;;;;;50.75;39.25;;;;;;;;4901948;29;45337;-77
2023/11/23 02:10:01;;;;;;;;;50.75;40.25;;;;;;;;4903164;29;45183;-77
2023/11/23 02:12:27;;;;;;;;;43.25;37.50;;;;;;;;4903291;29;45301;-78
2023/11/23 02:14:54;;;;;;;;;21.33;17.67;;;;;;;;4885971;29;46814;-78
2023/11/23 02:17:19;;;;;;;;;43.33;37.33;;;;;;;;4903067;29;45943;-78
2023/11/23 02:19:45;;;;;;;;;44.33;36.67;;;;;;;;4902773;29;45379;-77
2023/11/23 02:22:11;;;;;;;;;31.33;28.67;;;;;;;;4903215;29;45744;-78
2023/11/23 02:24:36;;;;;;;;;44.67;37.33;;;;;;;;4885864;29;47317;-77
2023/11/23 02:27:02;;;;;;;;;44.67;36.33;;;;;;;;4902379;29;45423;-77
2023/11/23 02:29:27;;;;;;;;;42.67;35.33;;;;;;;;4884784;29;45288;-77
2023/11/23 02:31:52;;;;;;;;;43.25;38.00;;;;;;;;4903148;29;45367;-77
2023/11/23 02:34:17;;;;;;;;;44.00;37.33;;;;;;;;4885682;29;45805;-77
2023/11/23 02:36:42;;;;;;;;;35.67;32.33;;;;;;;;4885780;29;48100;-78
2023/11/23 02:39:09;;;;;;;;;45.67;38.00;;;;;;;;4885970;29;45441;-78
2023/11/23 02:41:34;;;;;;;;;42.67;36.33;;;;;;;;4903108;29;45293;-77
2023/11/23 02:43:59;;;;;;;;;41.33;35.67;;;;;;;;4902709;29;45422;-77
2023/11/23 02:46:24;;;;;;;;;35.33;31.67;;;;;;;;4885727;29;48238;-77
2023/11/23 02:48:49;;;;;;;;;42.25;35.75;;;;;;;;4902712;29;45305;-77
2023/11/23 02:51:15;;;;;;;;;34.33;32.00;;;;;;;;4887771;29;45273;-78
2023/11/23 02:53:43;;;;;;;;;39.67;35.67;;;;;;;;4887356;29;45955;-78
2023/11/23 02:56:09;;;;;;;;;39.33;33.33;;;;;;;;4904517;29;46293;-77
2023/11/23 02:58:35;;;;;;;;;31.33;29.33;;;;;;;;4905475;28;45747;-77
2023/11/23 03:01:00;;;;;;;;;37.67;34.00;;;;;;;;4925259;28;45384;-78
2023/11/23 03:03:25;;;;;;;;;35.33;32.00;;;;;;;;4924931;28;45379;-77
2023/11/23 03:05:50;;;;;;;;;33.33;31.67;;;;;;;;4924959;28;46524;-77
2023/11/23 03:08:15;;;;;;;;;32.67;28.33;;;;;;;;4925080;28;45426;-76
2023/11/23 03:10:40;;;;;;;;;31.00;30.33;;;;;;;;4924652;28;45505;-77
2023/11/23 03:13:06;;;;;;;;;34.00;30.67;;;;;;;;4924944;28;45371;-77
2023/11/23 03:15:31;;;;;;;;;33.50;32.00;;;;;;;;4924758;28;45355;-77
2023/11/23 03:17:56;;;;;;;;;33.33;31.00;;;;;;;;4907751;28;45441;-77
2023/11/23 03:20:21;;;;;;;;;37.00;34.33;;;;;;;;4907638;28;45315;-77
2023/11/23 03:22:46;;;;;;;;;40.33;35.33;;;;;;;;4924819;28;45441;-78
2023/11/23 03:25:12;;;;;;;;;33.00;32.00;;;;;;;;4907423;28;47169;-76
2023/11/23 03:27:38;;;;;;;;;30.33;29.33;;;;;;;;4924604;28;45295;-78
2023/11/23 03:30:05;;;;;;;;;31.00;28.33;;;;;;;;4907672;28;45287;-77
2023/11/23 03:32:32;;;;;;;;;35.33;33.33;;;;;;;;4907284;28;45547;-77
2023/11/23 03:34:57;;;;;;;;;36.67;32.00;;;;;;;;4924069;28;45717;-78
2023/11/23 03:37:22;;;;;;;;;33.33;30.33;;;;;;;;4924553;28;45156;-77
2023/11/23 03:39:47;;;;;;;;;35.00;32.00;;;;;;;;4924804;28;45386;-78
2023/11/23 03:42:12;;;;;;;;;34.00;31.33;;;;;;;;4907516;28;46926;-77
2023/11/23 03:44:38;;;;;;;;;33.00;31.67;;;;;;;;4906919;28;48554;-77
2023/11/23 03:47:03;;;;;;;;;31.33;31.00;;;;;;;;4924563;28;45434;-77
2023/11/23 03:49:28;;;;;;;;;32.00;29.00;;;;;;;;4924537;28;45151;-77
2023/11/23 03:51:53;;;;;;;;;33.00;31.67;;;;;;;;4924515;28;45451;-77
2023/11/23 03:54:18;;;;;;;;;32.00;31.67;;;;;;;;4924295;28;45294;-77
2023/11/23 03:56:43;;;;;;;;;31.50;28.75;;;;;;;;4922063;28;45217;-77
2023/11/23 03:59:09;;;;;;;;;28.67;27.67;;;;;;;;4888235;29;45606;-77
2023/11/23 04:01:34;;;;;;;;;27.67;26.67;;;;;;;;4904829;29;45520;-79
2023/11/23 04:03:59;;;;;;;;;30.33;27.00;;;;;;;;4887969;29;48229;-77
2023/11/23 04:06:24;;;;;;;;;28.67;26.33;;;;;;;;4905185;29;45321;-77
2023/11/23 04:08:49;;;;;;;;;24.00;22.67;;;;;;;;4905317;29;45417;-77
2023/11/23 04:11:15;;;;;;;;;28.33;28.33;;;;;;;;4887646;29;45906;-78
2023/11/23 04:13:40;;;;;;;;;27.33;23.00;;;;;;;;4887709;29;47530;-77
2023/11/23 04:16:05;;;;;;;;;19.67;17.33;;;;;;;;4905017;29;45432;-77
2023/11/23 04:18:30;;;;;;;;;27.67;24.67;;;;;;;;4887874;29;45342;-78
2023/11/23 04:20:55;;;;;;;;;31.25;28.00;;;;;;;;4904926;29;45419;-78
2023/11/23 04:23:20;;;;;;;;;25.00;22.33;;;;;;;;4904792;29;46208;-78
2023/11/23 04:25:46;;;;;;;;;30.33;26.00;;;;;;;;4887643;29;45406;-77
2023/11/23 04:28:14;;;;;;;;;12.67;11.33;;;;;;;;4904590;29;45454;-78
2023/11/23 04:30:39;;;;;;;;;21.33;19.67;;;;;;;;4904720;29;45264;-78
2023/11/23 04:33:04;;;;;;;;;30.00;26.33;;;;;;;;4904000;29;46144;-77
2023/11/23 04:35:29;;;;;;;;;30.33;29.00;;;;;;;;4903752;29;45284;-78
2023/11/23 04:37:54;;;;;;;;;24.00;23.67;;;;;;;;4904770;29;45594;-78
2023/11/23 04:40:20;;;;;;;;;29.00;24.33;;;;;;;;4904548;29;45205;-78
2023/11/23 04:42:45;;;;;;;;;23.00;22.67;;;;;;;;4904335;29;45975;-77
2023/11/23 04:45:11;;;;;;;;;22.67;21.67;;;;;;;;4904572;29;45261;-76
2023/11/23 04:47:36;;;;;;;;;23.33;21.67;;;;;;;;4904548;29;45435;-78
2023/11/23 04:50:01;;;;;;;;;22.67;21.00;;;;;;;;4887320;29;47307;-77
2023/11/23 04:52:26;;;;;;;;;24.00;23.67;;;;;;;;4887246;29;46961;-78
2023/11/23 04:54:52;;;;;;;;;24.33;24.33;;;;;;;;4904324;29;45169;-77
2023/11/23 04:57:17;;;;;;;;;25.00;23.00;;;;;;;;4911373;28;45213;-78
2023/11/23 04:59:42;;;;;;;;;23.33;20.67;;;;;;;;4923150;28;45259;-78
2023/11/23 05:02:07;;;;;;;;;26.33;22.67;;;;;;;;4923099;28;45196;-77
2023/11/23 05:04:32;;;;;;;;;27.67;25.00;;;;;;;;4906101;28;45460;-78
2023/11/23 05:06:58;;;;;;;;;19.00;18.00;;;;;;;;4923360;28;45237;-78
2023/11/23 05:09:23;;;;;;;;;19.67;19.67;;;;;;;;4906019;28;46075;-78
2023/11/23 05:11:48;;;;;;;;;21.00;21.00;;;;;;;;4922694;28;45345;-77
2023/11/23 05:14:13;;;;;;;;;25.33;23.33;;;;;;;;4922505;28;45428;-78
2023/11/23 05:16:38;;;;;;;;;26.67;23.00;;;;;;;;4906128;28;45265;-78
2023/11/23 05:19:04;;;;;;;;;20.67;19.33;;;;;;;;4922977;28;45638;-78
2023/11/23 05:21:29;;;;;;;;;26.00;25.00;;;;;;;;4922912;28;45958;-78
2023/11/23 05:23:54;;;;;;;;;26.00;23.00;;;;;;;;4905708;28;45327;-78
2023/11/23 05:26:19;;;;;;;;;20.00;19.67;;;;;;;;4923380;28;45495;-78
2023/11/23 05:28:45;;;;;;;;;26.67;23.33;;;;;;;;4922697;28;45362;-78
2023/11/23 05:31:10;;;;;;;;;22.33;20.67;;;;;;;;4922951;28;46520;-78
2023/11/23 05:33:35;;;;;;;;;21.33;21.33;;;;;;;;4922793;28;45379;-78
2023/11/23 05:36:00;;;;;;;;;27.00;24.33;;;;;;;;4922840;28;45379;-78
2023/11/23 05:38:25;;;;;;;;;25.00;24.00;;;;;;;;4905536;28;46270;-78
2023/11/23 05:40:51;;;;;;;;;22.00;21.33;;;;;;;;4922628;28;47270;-78
2023/11/23 05:43:18;;;;;;;;;21.67;21.33;;;;;;;;4922585;28;45312;-78
2023/11/23 05:45:43;;;;;;;;;23.67;21.67;;;;;;;;4922941;28;45303;-78
2023/11/23 05:48:09;;;;;;;;;20.33;19.33;;;;;;;;4905339;28;46107;-77
2023/11/23 05:50:34;;;;;;;;;27.00;27.00;;;;;;;;4922261;28;45922;-78
2023/11/23 05:52:59;;;;;;;;;24.67;21.33;;;;;;;;4905362;28;45758;-78
2023/11/23 05:55:24;;;;;;;;;23.33;21.00;;;;;;;;4905608;28;45413;-77
2023/11/23 05:57:49;;;;;;;;;27.33;23.00;;;;;;;;4893661;29;46226;-77
2023/11/23 06:00:15;;;;;;;;;22.67;22.00;;;;;;;;4902844;29;45431;-78
2023/11/23 06:02:41;;;;;;;;;21.67;20.33;;;;;;;;4885974;29;45567;-77
2023/11/23 06:05:06;;;;;;;;;21.33;20.00;;;;;;;;4902746;29;45318;-78
2023/11/23 06:07:31;;;;;;;;;26.67;23.67;;;;;;;;4901878;29;45333;-77
2023/11/23 06:10:00;;;;;;;;;25.33;24.67;;;;;;;;4903085;29;45268;-77
2023/11/23 06:12:26;;;;;;;;;16.33;16.33;;;;;;;;4903350;29;45390;-78
2023/11/23 06:14:51;;;;;;;;;24.67;24.00;;;;;;;;4903278;29;45243;-79
2023/11/23 06:17:16;;;;;;;;;19.33;17.67;;;;;;;;4903289;29;45369;-81
2023/11/23 06:19:44;;;;;;;;;26.33;22.67;;;;;;;;4901590;29;48371;-81
2023/11/23 06:22:11;;;;;;;;;20.33;19.33;;;;;;;;4901694;29;45328;-81
2023/11/23 06:24:36;;;;;;;;;22.67;21.00;;;;;;;;4901927;29;45393;-79
2023/11/23 06:27:01;;;;;;;;;21.33;20.00;;;;;;;;4902866;29;45244;-78
2023/11/23 06:29:26;;;;;;;;;25.33;22.67;;;;;;;;4902917;29;45468;-79
2023/11/23 06:31:52;;;;;;;;;25.00;21.67;;;;;;;;4902886;29;45245;-79
2023/11/23 06:34:17;;;;;;;;;22.33;21.00;;;;;;;;4902939;29;45452;-78
2023/11/23 06:36:42;;;;;;;;;19.33;17.67;;;;;;;;4902162;29;45346;-80
2023/11/23 06:39:09;;;;;;;;;17.67;17.67;;;;;;;;4901951;29;45266;-80
2023/11/23 06:41:34;;;;;;;;;15.00;14.67;;;;;;;;4902863;29;45443;-80
2023/11/23 06:44:00;;;;;;;;;22.67;19.67;;;;;;;;4901681;29;45191;-80
2023/11/23 06:46:25;;;;;;;;;21.33;21.00;;;;;;;;4901380;29;45558;-80
2023/11/23 06:48:50;;;;;;;;;18.00;16.33;;;;;;;;4884046;29;48281;-80
2023/11/23 06:51:15;;;;;;;;;21.33;19.33;;;;;;;;4902825;29;45369;-80
2023/11/23 06:53:45;;;;;;;;;20.00;20.00;;;;;;;;4902889;29;45372;-80
2023/11/23 06:56:12;;;;;;;;;20.33;19.67;;;;;;;;4902636;29;45530;-79
2023/11/23 06:58:38;;;;;;;;;22.67;21.00;;;;;;;;4918168;28;45547;-79
2023/11/23 07:01:03;;;;;;;;;21.00;19.67;;;;;;;;4891027;29;45813;-79
2023/11/23 07:03:29;;;;;;;;;24.00;23.00;;;;;;;;4894060;29;45382;-79
2023/11/23 07:05:54;;;;;;;;;18.33;18.33;;;;;;;;4893114;29;45426;-80
2023/11/23 07:08:19;;;;;;;;;21.00;18.00;;;;;;;;4876919;29;47314;-75
2023/11/23 07:10:44;;;;;;;;;20.00;19.33;;;;;;;;4896680;29;45331;-75
2023/11/23 07:13:09;;;;;;;;;19.33;17.00;;;;;;;;4896234;29;45531;-76
2023/11/23 07:15:35;;;;;;;;;21.67;20.33;;;;;;;;4896541;29;45478;-76
2023/11/23 07:18:00;;;;;;;;;21.67;18.67;;;;;;;;4894552;29;45620;-76
2023/11/23 07:20:26;;;;;;;;;23.00;22.33;;;;;;;;4902300;29;45400;-75
2023/11/23 07:22:52;;;;;;;;;22.33;21.00;;;;;;;;4902698;29;45319;-75
2023/11/23 07:25:17;;;;;;;;;21.67;19.33;;;;;;;;4902246;29;45571;-75
2023/11/23 07:27:42;;;;;;;;;18.67;18.00;;;;;;;;4902133;29;46099;-76
2023/11/23 07:30:07;;;;;;;;;18.33;17.67;;;;;;;;4901091;29;45370;-75
2023/11/23 07:32:33;;;;;;;;;27.67;22.00;;;;;;;;4901914;29;45264;-75
2023/11/23 07:34:59;;;;;;;;;22.67;21.67;;;;;;;;4901763;29;45350;-75
2023/11/23 07:37:24;;;;;;;;;18.00;16.67;;;;;;;;4888236;29;47270;-75
2023/11/23 07:39:50;;;;;;;;;21.33;19.33;;;;;;;;4897605;29;45331;-75
2023/11/23 07:42:15;;;;;;;;;14.67;14.00;;;;;;;;4900087;29;45597;-76
2023/11/23 07:44:41;;;;;;;;;23.67;22.00;;;;;;;;4895845;29;45581;-76
2023/11/23 07:47:10;;;;;;;;;22.33;21.67;;;;;;;;4894194;29;46382;-75
2023/11/23 07:49:36;;;;;;;;;19.33;19.00;;;;;;;;4886008;29;45452;-75
2023/11/23 07:52:01;;;;;;;;;27.67;23.00;;;;;;;;4886523;29;45325;-76
2023/11/23 07:54:26;;;;;;;;;20.67;18.00;;;;;;;;4894127;29;45332;-77
2023/11/23 07:56:53;;;;;;;;;23.67;22.33;;;;;;;;4898560;28;46320;-76
2023/11/23 07:59:18;;;;;;;;;22.00;18.67;;;;;;;;4881923;29;45468;-76
2023/11/23 08:01:44;;;;;;;;;21.67;20.00;;;;;;;;4886858;29;45491;-76
2023/11/23 08:04:11;;;;;;;;;20.33;17.00;;;;;;;;4901953;29;45328;-76
2023/11/23 08:06:36;;;;;;;;;18.67;17.00;;;;;;;;4894515;29;45320;-75
2023/11/23 08:09:01;;;;;;;;;22.00;19.67;;;;;;;;4896113;29;45284;-76
2023/11/23 08:11:27;;;;;;;;;17.67;16.33;;;;;;;;4883976;29;45303;-75
2023/11/23 08:13:55;;;;;;;;;17.00;14.33;;;;;;;;4881012;29;46068;-76
2023/11/23 08:16:20;;;;;;;;;19.00;18.00;;;;;;;;4894231;29;45414;-76
2023/11/23 08:18:46;;;;;;;;;23.00;21.67;;;;;;;;4894540;29;45304;-76
2023/11/23 08:21:11;;;;;;;;;23.67;23.00;;;;;;;;4895064;29;45420;-75
2023/11/23 08:23:36;;;;;;;;;22.00;19.00;;;;;;;;4894943;29;45482;-77
2023/11/23 08:26:03;;;;;;;;;18.67;18.33;;;;;;;;4896853;29;45608;-78
2023/11/23 08:28:28;;;;;;;;;21.67;19.00;;;;;;;;4896588;29;45449;-76
2023/11/23 08:30:53;;;;;;;;;16.67;16.67;;;;;;;;4889666;29;45369;-79
2023/11/23 08:33:18;;;;;;;;;20.33;19.67;;;;;;;;4869112;29;47169;-77
2023/11/23 08:35:44;;;;;;;;;22.67;20.00;;;;;;;;4886125;29;46342;-79
2023/11/23 08:38:10;;;;;;;;;26.00;21.33;;;;;;;;4885910;29;45392;-79
2023/11/23 08:40:35;;;;;;;;;26.00;20.00;;;;;;;;4885634;29;45286;-78
2023/11/23 08:43:00;;;;;;;;;24.67;22.00;;;;;;;;4885537;29;45608;-78
2023/11/23 08:45:26;;;;;;;;;24.33;22.00;;;;;;;;4869234;29;48024;-78
2023/11/23 08:47:52;;;;;;;;;28.67;25.00;;;;;;;;4886122;29;45246;-79
2023/11/23 08:50:17;;;;;;;;;26.67;24.67;;;;;;;;4893808;29;45351;-78
2023/11/23 08:52:42;;;;;;;;;24.67;21.33;;;;;;;;4892442;29;45280;-78
2023/11/23 08:55:08;;;;;;;;;26.67;23.00;;;;;;;;4904467;29;45292;-76
2023/11/23 08:57:35;;;;;;;;;25.33;23.33;;;;;;;;4893089;28;45239;-76
2023/11/23 09:00:01;;;;;;;;;19.33;19.33;;;;;;;;4922681;28;45378;-76
2023/11/23 09:02:27;;;;;;;;;24.33;23.00;;;;;;;;4905862;28;47109;-76
2023/11/23 09:04:52;;;;;;;;;26.67;23.00;;;;;;;;4905668;28;47622;-76
2023/11/23 09:07:17;;;;;;;;;24.00;19.67;;;;;;;;4923241;28;45339;-76
2023/11/23 09:09:42;;;;;;;;;23.33;20.67;;;;;;;;4906155;28;45479;-76
2023/11/23 09:12:07;;;;;;;;;20.67;20.67;;;;;;;;4922895;28;45396;-76
2023/11/23 09:14:33;;;;;;;;;19.33;18.33;;;;;;;;4922863;28;45290;-75
2023/11/23 09:16:58;;;;;;;;;26.00;22.33;;;;;;;;4922784;28;45426;-77
2023/11/23 09:19:23;;;;;;;;;25.67;24.33;;;;;;;;4923893;28;45411;-78
2023/11/23 09:21:48;;;;;;;;;28.67;26.67;;;;;;;;4922969;28;45359;-78
2023/11/23 09:24:14;;;;;;;;;31.33;29.00;;;;;;;;4923285;28;46552;-78
2023/11/23 09:26:40;;;;;;;;;19.33;14.33;;;;;;;;4906299;28;45570;-78
2023/11/23 09:29:05;;;;;;;;;28.67;27.67;;;;;;;;4905026;28;45326;-77
2023/11/23 09:31:31;;;;;;;;;25.67;22.00;;;;;;;;4905084;28;47048;-77
2023/11/23 09:33:57;;;;;;;;;26.33;25.00;;;;;;;;4891922;29;47048;-75
2023/11/23 09:36:22;;;;;;;;;27.00;24.33;;;;;;;;4903529;29;45320;-77
2023/11/23 09:38:49;;;;;;;;;26.00;22.33;;;;;;;;4903032;29;45787;-76
2023/11/23 09:41:18;;;;;;;;;23.00;22.00;;;;;;;;4903056;29;45606;-75
2023/11/23 09:43:45;;;;;;;;;24.00;24.00;;;;;;;;4903210;29;45332;-76
2023/11/23 09:46:11;;;;;;;;;23.33;23.33;;;;;;;;4886824;29;46207;-77
2023/11/23 09:48:38;;;;;;;;;25.33;21.33;;;;;;;;4895652;29;46679;-75
2023/11/23 09:51:04;;;;;;;;;27.67;25.33;;;;;;;;4877718;29;46182;-76
2023/11/23 09:53:30;;;;;;;;;21.00;20.33;;;;;;;;4893381;29;46678;-77
2023/11/23 09:55:56;;;;;;;;;25.33;24.00;;;;;;;;4897541;29;45642;-78
2023/11/23 09:58:21;;;;;;;;;20.00;20.00;;;;;;;;4918269;28;45473;-78
2023/11/23 10:00:47;;;;;;;;;23.00;23.00;;;;;;;;4907800;28;45349;-77
2023/11/23 10:03:13;;;;;;;;;29.67;25.33;;;;;;;;4906765;29;47384;-78
2023/11/23 10:05:38;;;;;;;;;24.00;24.00;;;;;;;;4904215;29;45386;-78
2023/11/23 10:08:04;;;;;;;;;23.00;22.33;;;;;;;;4891333;29;45394;-78
2023/11/23 10:10:29;;;;;;;;;21.00;21.00;;;;;;;;4882145;29;47061;-76
2023/11/23 10:12:55;;;;;;;;;25.33;23.67;;;;;;;;4901047;29;45428;-75
2023/11/23 10:15:21;;;;;;;;;27.33;27.00;;;;;;;;4902156;29;45368;-76
2023/11/23 10:17:47;;;;;;;;;22.33;20.67;;;;;;;;4903246;29;45290;-76
2023/11/23 10:20:16;;;;;;;;;27.33;26.33;;;;;;;;4902798;29;45287;-76
2023/11/23 10:22:47;;;;;;;;;33.00;29.67;;;;;;;;4902947;29;45365;-76
2023/11/23 10:25:31;;;;;;;;;22.67;22.67;;;;;;;;4902942;29;45377;-76
2023/11/23 10:27:58;;;;;;;;;31.00;27.67;;;;;;;;4902951;29;45276;-76
2023/11/23 10:30:23;;;;;;;;;30.33;28.33;;;;;;;;4902874;29;45364;-76
2023/11/23 10:32:50;;;;;;;;;25.33;25.33;;;;;;;;4903059;29;45296;-75
2023/11/23 10:35:16;;;;;;;;;27.67;25.00;;;;;;;;4885764;29;45230;-75
2023/11/23 10:37:42;;;;;;;;;23.67;23.00;;;;;;;;4903009;29;45357;-77
2023/11/23 10:40:09;;;;;;;;;25.67;25.67;;;;;;;;4885674;29;46126;-76
2023/11/23 10:42:35;;;;;;;;;28.67;26.00;;;;;;;;4876373;29;47364;-76
2023/11/23 10:45:01;;;;;;;;;26.33;26.00;;;;;;;;4866730;29;45890;-77
2023/11/23 10:47:28;;;;;;;;;26.67;26.00;;;;;;;;4883963;29;45284;-77
2023/11/23 10:49:54;;;;;;;;;28.00;25.33;;;;;;;;4883808;29;45238;-77
2023/11/23 10:52:21;;;;;;;;;25.67;24.67;;;;;;;;4883782;29;45293;-76
2023/11/23 10:54:46;;;;;;;;;31.33;29.00;;;;;;;;4883573;29;45381;-78
2023/11/23 10:57:12;;;;;;;;;26.00;23.33;;;;;;;;4879127;28;45310;-77
2023/11/23 10:59:41;;;;;;;;;24.67;23.00;;;;;;;;4921364;28;45431;-77
2023/11/23 11:02:07;;;;;;;;;21.67;21.33;;;;;;;;4921225;28;45423;-77
2023/11/23 11:04:32;;;;;;;;;43.67;36.33;;;;;;;;4921496;28;45340;-76
2023/11/23 11:06:58;;;;;;;;;28.67;27.33;;;;;;;;4901493;28;45242;-77
2023/11/23 11:09:25;;;;;;;;;24.33;23.00;;;;;;;;4885324;29;47164;-76
2023/11/23 11:11:55;;;;;;;;;32.67;30.33;;;;;;;;4904270;29;45333;-76
2023/11/23 11:14:33;;;;;;;;;27.67;24.00;;;;;;;;4904453;29;45482;-76
2023/11/23 11:17:02;;;;;;;;;32.33;29.67;;;;;;;;4904125;29;45743;-77
2023/11/23 11:19:28;;;;;;;;;24.33;23.00;;;;;;;;4904064;29;45387;-77
2023/11/23 11:21:57;;;;;;;;;25.33;24.00;;;;;;;;4902752;29;46424;-76
2023/11/23 11:24:25;;;;;;;;;25.00;24.67;;;;;;;;4903344;29;45405;-75
2023/11/23 11:26:58;;;;;;;;;26.33;25.33;;;;;;;;4902002;29;45392;-76
2023/11/23 11:29:23;;;;;;;;;25.00;24.00;;;;;;;;4904221;29;45333;-76
2023/11/23 11:31:48;;;;;;;;;21.00;20.00;;;;;;;;4905064;29;45287;-75
2023/11/23 11:34:21;;;;;;;;;22.00;21.67;;;;;;;;4894943;29;45680;-76
2023/11/23 11:37:06;;;;;;;;;22.67;21.33;;;;;;;;4871950;29;45249;-75
2023/11/23 11:39:33;;;;;;;;;28.00;25.33;;;;;;;;4869532;29;47041;-75
2023/11/23 11:41:59;;;;;;;;;25.33;24.33;;;;;;;;4869144;29;48278;-76
2023/11/23 11:44:25;;;;;;;;;27.67;25.67;;;;;;;;4886286;29;45272;-75
2023/11/23 11:46:50;;;;;;;;;23.00;22.00;;;;;;;;4869717;29;45324;-77
2023/11/23 11:49:15;;;;;;;;;29.67;27.67;;;;;;;;4894119;29;46929;-78
2023/11/23 11:51:44;;;;;;;;;25.67;23.00;;;;;;;;4878524;29;48190;-76
2023/11/23 11:54:09;;;;;;;;;23.00;21.67;;;;;;;;4892824;29;45818;-75
2023/11/23 11:56:35;;;;;;;;;35.67;31.00;;;;;;;;4896680;28;45288;-77
2023/11/23 11:59:03;;;;;;;;;49.00;38.33;;;;;;;;4896256;29;45492;-77
2023/11/23 12:01:28;;;;;;;;;46.67;35.00;;;;;;;;4876835;29;46271;-78
2023/11/23 12:03:53;;;;;;;;;35.00;29.67;;;;;;;;4895411;29;45320;-75
2023/11/23 12:06:19;;;;;;;;;25.00;25.00;;;;;;;;4895006;29;45511;-76
2023/11/23 12:08:45;;;;;;;;;30.67;28.67;;;;;;;;4894157;29;45307;-76
2023/11/23 12:11:20;;;;;;;;;29.00;27.33;;;;;;;;4878714;29;48483;-77
2023/11/23 12:13:45;;;;;;;;;23.33;23.00;;;;;;;;4895448;29;45443;-76
2023/11/23 12:16:11;;;;;;;;;29.33;27.67;;;;;;;;4894056;29;45446;-76
2023/11/23 12:18:36;;;;;;;;;23.33;22.67;;;;;;;;4877927;29;45361;-77
2023/11/23 12:21:03;;;;;;;;;28.00;25.67;;;;;;;;4894984;29;45504;-76
2023/11/23 12:23:28;;;;;;;;;28.00;24.00;;;;;;;;4892287;29;45755;-77
2023/11/23 12:25:55;;;;;;;;;30.67;28.33;;;;;;;;4898859;28;45324;-76
2023/11/23 12:28:20;;;;;;;;;26.00;24.00;;;;;;;;4898995;29;45253;-76
2023/11/23 12:30:46;;;;;;;;;31.00;29.67;;;;;;;;4894617;29;46182;-76
2023/11/23 12:33:12;;;;;;;;;27.67;27.67;;;;;;;;4893268;29;45494;-77
2023/11/23 12:35:38;;;;;;;;;25.00;25.00;;;;;;;;4876810;29;45665;-76
2023/11/23 12:38:04;;;;;;;;;28.33;26.00;;;;;;;;4895464;29;45409;-76
2023/11/23 12:40:29;;;;;;;;;22.33;22.33;;;;;;;;4893515;29;46110;-75
2023/11/23 12:42:54;;;;;;;;;22.50;21.75;;;;;;;;4894456;29;45449;-75
2023/11/23 12:45:19;;;;;;;;;25.33;25.00;;;;;;;;4878190;29;45402;-77
2023/11/23 12:47:44;;;;;;;;;21.33;21.00;;;;;;;;4893199;29;45436;-75
2023/11/23 12:50:12;;;;;;;;;22.00;19.67;;;;;;;;4894864;29;45477;-76
2023/11/23 12:52:38;;;;;;;;;25.67;24.00;;;;;;;;4894461;29;45292;-74
2023/11/23 12:55:05;;;;;;;;;20.67;18.00;;;;;;;;4893108;29;45303;-75
2023/11/23 12:57:31;;;;;;;;;15.00;15.00;;;;;;;;4899619;28;45288;-77
2023/11/23 12:59:56;;;;;;;;;17.67;17.00;;;;;;;;4876988;29;46196;-76
2023/11/23 13:02:21;;;;;;;;;19.67;19.67;;;;;;;;4891762;29;45748;-76
2023/11/23 13:04:46;;;;;;;;;18.67;17.67;;;;;;;;4890066;29;45258;-76
2023/11/23 13:07:12;;;;;;;;;22.67;21.67;;;;;;;;4883663;29;46174;-76
2023/11/23 13:09:37;;;;;;;;;18.67;16.67;;;;;;;;4886110;29;47281;-76
2023/11/23 13:12:03;;;;;;;;;19.33;18.00;;;;;;;;4903265;29;45292;-75
2023/11/23 13:14:29;;;;;;;;;25.67;22.00;;;;;;;;4877485;29;45859;-76
2023/11/23 13:16:54;;;;;;;;;18.00;18.00;;;;;;;;4886618;29;45323;-76
2023/11/23 13:19:19;;;;;;;;;17.00;16.00;;;;;;;;4884272;29;46156;-76
2023/11/23 13:21:44;;;;;;;;;21.67;20.67;;;;;;;;4894435;29;45311;-75
2023/11/23 13:24:15;;;;;;;;;21.33;20.00;;;;;;;;4879805;29;45417;-76
2023/11/23 13:26:53;;;;;;;;;37.67;32.33;;;;;;;;4874910;29;46225;-76
2023/11/23 13:29:18;;;;;;;;;38.33;31.33;;;;;;;;4896456;29;47244;-77
2023/11/23 13:31:43;;;;;;;;;34.00;30.67;;;;;;;;4881057;29;45726;-76
2023/11/23 13:34:10;;;;;;;;;33.00;29.67;;;;;;;;4885181;29;45289;-76
2023/11/23 13:36:35;;;;;;;;;18.33;17.33;;;;;;;;4885284;29;46771;-76
2023/11/23 13:39:01;;;;;;;;;13.33;13.33;;;;;;;;4885922;29;46913;-76
2023/11/23 13:42:03;;;;;;;;;12.00;12.00;;;;;;;;4883837;29;45488;-77
2023/11/23 13:44:49;;;;;;;;;13.67;13.67;;;;;;;;4888956;29;45352;-76
2023/11/23 13:47:17;;;;;;;;;17.33;16.67;;;;;;;;4866456;29;46773;-76
2023/11/23 13:50:13;;;;;;;;;12.67;11.67;;;;;;;;4866170;29;48133;-76
2023/11/23 13:53:11;;;;;;;;;11.33;8.67;;;;;;;;4883197;29;45355;-76
2023/11/23 13:55:36;;;;;;;;;7.67;7.67;;;;;;;;4876497;29;45505;-77
2023/11/23 13:58:17;;;;;;;;;8.33;8.00;;;;;;;;4887480;29;46450;-78
2023/11/23 14:00:46;;;;;;;;;7.67;7.67;;;;;;;;4901964;29;46304;-75
2023/11/23 14:03:12;;;;;;;;;10.67;9.67;;;;;;;;4902556;28;45351;-77
2023/11/23 14:05:37;;;;;;;;;20.33;18.00;;;;;;;;4901643;28;45306;-76
2023/11/23 14:08:04;;;;;;;;;8.33;8.33;;;;;;;;4883583;29;45473;-76
2023/11/23 14:10:29;;;;;;;;;8.67;8.67;;;;;;;;4866043;29;48024;-76
2023/11/23 14:12:56;;;;;;;;;9.00;8.33;;;;;;;;4883160;29;45226;-76